Time;durP1;ratioP1;P1;durP2;ratioP2;P2;SDS_P1;SDS_P2;PMS_P1;PMS_P2;Temp;Humidity;BMP_temperature;BMP_pressure;BME280_temperature;BME280_humidity;BME280_pressure;Samples;Min_cycle;Max_cycle;Signal;HPM_P1;HPM_P2
2022/03/24 00:01:26;;;;;;;;;;;18.50;57.50;;;;;;5036518;28;795;-69
2022/03/24 00:03:52;;;;;;;;;;;18.50;57.00;;;;;;5036617;28;851;-69
2022/03/24 00:06:17;;;;;;;;;;;18.50;57.00;;;;;;5034805;28;1188;-69
2022/03/24 00:08:42;;;;;;;;;;;18.50;57.00;;;;;;5035564;28;880;-69
2022/03/24 00:11:08;;;;;;;;;;;18.50;57.00;;;;;;5036429;28;883;-69
2022/03/24 00:13:33;;;;;;;;;;;18.50;57.00;;;;;;5035227;28;1272;-69
2022/03/24 00:15:59;;;;;;;;;;;18.50;57.00;;;;;;5036017;28;1886;-70
2022/03/24 00:18:25;;;;;;;;;;;18.50;57.00;;;;;;5036165;28;963;-70
2022/03/24 00:20:50;;;;;;;;;;;18.50;57.10;;;;;;5051652;28;874;-70
2022/03/24 00:23:16;;;;;;;;;;;18.50;57.10;;;;;;5051755;28;927;-70
2022/03/24 00:25:41;;;;;;;;;;;18.50;57.10;;;;;;5051309;28;1309;-70
2022/03/24 00:28:07;;;;;;;;;;;18.50;57.30;;;;;;5034826;28;1211;-70
2022/03/24 00:30:32;;;;;;;;;;;18.40;57.10;;;;;;5036104;28;820;-70
2022/03/24 00:32:57;;;;;;;;;;;18.40;57.10;;;;;;5035934;28;878;-70
2022/03/24 00:35:24;;;;;;;;;;;18.40;57.10;;;;;;5034589;28;1275;-69
2022/03/24 00:37:50;;;;;;;;;;;18.40;57.10;;;;;;5035905;28;1918;-70
2022/03/24 00:40:17;;;;;;;;;;;18.40;57.10;;;;;;5036191;28;939;-71
2022/03/24 00:42:42;;;;;;;;;;;18.40;57.10;;;;;;5034627;28;1199;-71
2022/03/24 00:45:12;;;;;;;;;;;18.40;57.20;;;;;;5035728;28;1280;-70
2022/03/24 00:47:41;;;;;;;;;;;18.40;57.20;;;;;;5035553;28;820;-71
2022/03/24 00:50:07;;;;;;;;;;;18.40;57.20;;;;;;5051259;28;1026;-70
2022/03/24 00:52:33;;;;;;;;;;;18.40;57.20;;;;;;5036245;28;693;-70
2022/03/24 00:54:58;;;;;;;;;;;18.40;57.20;;;;;;5051041;28;1193;-70
2022/03/24 00:57:24;;;;;;;;;;;18.40;57.30;;;;;;5034963;28;1963;-70
2022/03/24 00:59:49;;;;;;;;;;;18.40;57.30;;;;;;5035422;28;903;-71
2022/03/24 01:02:16;;;;;;;;;;;18.40;57.30;;;;;;5050934;28;958;-70
2022/03/24 01:04:41;;;;;;;;;;;18.40;57.30;;;;;;5035732;28;843;-70
2022/03/24 01:07:07;;;;;;;;;;;18.40;57.30;;;;;;5050465;28;1193;-70
2022/03/24 01:09:32;;;;;;;;;;;18.40;57.30;;;;;;5035476;28;840;-70
2022/03/24 01:11:58;;;;;;;;;;;18.40;57.30;;;;;;5050805;28;915;-70
2022/03/24 01:14:23;;;;;;;;;;;18.40;57.30;;;;;;5050642;28;915;-70
2022/03/24 01:16:51;;;;;;;;;;;18.40;57.30;;;;;;5050335;28;1906;-70
2022/03/24 01:19:16;;;;;;;;;;;18.40;57.30;;;;;;5050440;28;891;-71
2022/03/24 01:21:42;;;;;;;;;;;18.30;57.30;;;;;;5050557;28;844;-70
2022/03/24 01:24:08;;;;;;;;;;;18.30;57.30;;;;;;5050702;28;810;-70
2022/03/24 01:26:33;;;;;;;;;;;18.30;57.30;;;;;;5050077;28;1285;-70
2022/03/24 01:29:00;;;;;;;;;;;18.30;57.40;;;;;;5034853;28;1107;-70
2022/03/24 01:31:25;;;;;;;;;;;18.30;57.40;;;;;;5050424;28;878;-70
2022/03/24 01:33:51;;;;;;;;;;;18.30;57.40;;;;;;5034957;28;891;-70
2022/03/24 01:36:16;;;;;;;;;;;18.30;57.40;;;;;;5034467;28;1906;-70
2022/03/24 01:38:42;;;;;;;;;;;18.30;57.40;;;;;;5034975;28;792;-70
2022/03/24 01:41:07;;;;;;;;;;;18.30;57.40;;;;;;5050216;28;835;-70
2022/03/24 01:43:33;;;;;;;;;;;18.40;57.40;;;;;;5034653;28;898;-70
2022/03/24 01:45:59;;;;;;;;;;;18.30;57.40;;;;;;5049909;28;1307;-69
2022/03/24 01:48:25;;;;;;;;;;;18.30;57.40;;;;;;5049975;28;875;-70
2022/03/24 01:50:50;;;;;;;;;;;18.30;57.30;;;;;;5050122;28;882;-69
2022/03/24 01:53:18;;;;;;;;;;;18.30;57.30;;;;;;5034646;28;780;-70
2022/03/24 01:55:43;;;;;;;;;;;18.30;57.30;;;;;;5049565;28;1197;-69
2022/03/24 01:58:09;;;;;;;;;;;18.40;57.30;;;;;;5049681;28;1894;-69
2022/03/24 02:00:34;;;;;;;;;;;18.40;57.30;;;;;;5049931;28;795;-71
2022/03/24 02:03:02;;;;;;;;;;;18.40;57.30;;;;;;5049730;28;799;-71
2022/03/24 02:05:29;;;;;;;;;;;18.40;57.20;;;;;;5049717;28;1185;-69
2022/03/24 02:07:54;;;;;;;;;;;18.40;57.20;;;;;;5049701;28;1029;-71
2022/03/24 02:10:20;;;;;;;;;;;18.40;57.20;;;;;;5033980;28;970;-71
2022/03/24 02:12:45;;;;;;;;;;;18.40;57.20;;;;;;5034094;28;733;-71
2022/03/24 02:15:11;;;;;;;;;;;18.40;57.20;;;;;;5049765;28;1200;-71
2022/03/24 02:17:39;;;;;;;;;;;18.40;57.20;;;;;;5033788;28;1894;-71
2022/03/24 02:20:05;;;;;;;;;;;18.40;57.20;;;;;;5034246;28;863;-71
2022/03/24 02:22:30;;;;;;;;;;;18.40;57.20;;;;;;5034505;28;945;-71
2022/03/24 02:24:56;;;;;;;;;;;18.40;57.20;;;;;;5034261;28;1193;-71
2022/03/24 02:27:23;;;;;;;;;;;18.40;57.20;;;;;;5048931;28;1147;-71
2022/03/24 02:29:49;;;;;;;;;;;18.50;57.20;;;;;;5034254;28;827;-71
2022/03/24 02:32:18;;;;;;;;;;;18.40;57.10;;;;;;5033787;28;871;-71
2022/03/24 02:34:51;;;;;;;;;;;18.40;57.20;;;;;;5049295;28;890;-71
2022/03/24 02:37:24;;;;;;;;;;;18.40;57.10;;;;;;5047997;28;1913;-71
2022/03/24 02:39:50;;;;;;;;;;;18.40;57.20;;;;;;5048995;28;824;-70
2022/03/24 02:42:20;;;;;;;;;;;18.40;57.20;;;;;;5049358;28;769;-71
2022/03/24 02:44:46;;;;;;;;;;;18.40;57.10;;;;;;5048968;28;851;-71
2022/03/24 02:47:12;;;;;;;;;;;18.40;57.20;;;;;;5033160;28;1318;-71
2022/03/24 02:49:38;;;;;;;;;;;18.40;57.20;;;;;;5032136;28;1539;-71
2022/03/24 02:52:04;;;;;;;;;;;18.40;57.20;;;;;;5048912;28;895;-71
2022/03/24 02:54:29;;;;;;;;;;;18.40;57.20;;;;;;5033311;28;788;-71
2022/03/24 02:56:55;;;;;;;;;;;18.40;57.20;;;;;;5048452;28;1965;-71
2022/03/24 02:59:20;;;;;;;;;;;18.40;57.20;;;;;;5033458;28;986;-71
2022/03/24 03:01:56;;;;;;;;;;;18.40;57.20;;;;;;5033266;28;820;-71
2022/03/24 03:04:21;;;;;;;;;;;18.40;57.20;;;;;;5048797;28;796;-71
2022/03/24 03:06:46;;;;;;;;;;;18.40;57.20;;;;;;5048285;28;1298;-71
2022/03/24 03:09:16;;;;;;;;;;;18.40;57.20;;;;;;5048585;28;859;-71
2022/03/24 03:11:44;;;;;;;;;;;18.40;57.20;;;;;;5033129;28;907;-71
2022/03/24 03:14:11;;;;;;;;;;;18.40;57.20;;;;;;5048478;28;915;-71
2022/03/24 03:16:37;;;;;;;;;;;18.40;57.20;;;;;;5047839;28;1965;-71
2022/03/24 03:19:03;;;;;;;;;;;18.40;57.20;;;;;;5048507;28;959;-71
2022/03/24 03:21:29;;;;;;;;;;;18.40;57.20;;;;;;5048045;28;872;-71
2022/03/24 03:23:54;;;;;;;;;;;18.40;57.20;;;;;;5048465;28;1133;-70
2022/03/24 03:26:20;;;;;;;;;;;18.40;57.20;;;;;;5032841;28;1184;-71
2022/03/24 03:28:45;;;;;;;;;;;18.40;57.20;;;;;;5048324;28;1194;-70
2022/03/24 03:31:10;;;;;;;;;;;18.40;57.20;;;;;;5033177;28;859;-71
2022/03/24 03:33:36;;;;;;;;;;;18.40;57.20;;;;;;5032998;28;839;-71
2022/03/24 03:36:05;;;;;;;;;;;18.40;57.30;;;;;;5048398;28;1907;-71
2022/03/24 03:38:32;;;;;;;;;;;18.40;57.30;;;;;;5048316;28;874;-71
2022/03/24 03:40:57;;;;;;;;;;;18.40;57.30;;;;;;5048160;28;930;-71
2022/03/24 03:43:23;;;;;;;;;;;18.40;57.30;;;;;;5048317;28;788;-71
2022/03/24 03:45:49;;;;;;;;;;;18.40;57.30;;;;;;5032635;28;1286;-71
2022/03/24 03:48:14;;;;;;;;;;;18.40;57.30;;;;;;5032816;28;860;-71
2022/03/24 03:50:41;;;;;;;;;;;18.40;57.30;;;;;;5048022;28;804;-71
2022/03/24 03:53:08;;;;;;;;;;;18.40;57.30;;;;;;5032810;28;891;-71
2022/03/24 03:55:34;;;;;;;;;;;18.40;57.30;;;;;;5047838;28;1194;-71
2022/03/24 03:57:59;;;;;;;;;;;18.40;57.30;;;;;;5048020;28;1910;-71
2022/03/24 04:03:09;;;;;;;;;;;18.40;57.40;;;;;;5032538;28;678;-71
2022/03/24 04:05:34;;;;;;;;;;;18.30;57.30;;;;;;5047840;28;1205;-71
2022/03/24 04:08:01;;;;;;;;;;;18.30;57.30;;;;;;5032584;28;819;-70
2022/03/24 04:10:27;;;;;;;;;;;18.40;57.40;;;;;;5047923;28;820;-70
2022/03/24 04:12:53;;;;;;;;;;;18.40;57.30;;;;;;5031291;28;870;-71
2022/03/24 04:15:18;;;;;;;;;;;18.40;57.40;;;;;;5032581;28;1299;-70
2022/03/24 04:17:44;;;;;;;;;;;18.30;57.30;;;;;;5032025;28;1898;-70
2022/03/24 04:20:10;;;;;;;;;;;18.30;57.30;;;;;;5032587;28;804;-70
2022/03/24 04:22:36;;;;;;;;;;;18.40;57.40;;;;;;5047834;28;882;-70
2022/03/24 04:25:02;;;;;;;;;;;18.30;57.30;;;;;;5032796;28;1303;-70
2022/03/24 04:27:27;;;;;;;;;;;18.30;57.40;;;;;;5030868;28;1285;-70
2022/03/24 04:29:53;;;;;;;;;;;18.40;57.40;;;;;;5047820;28;1287;-71
2022/03/24 04:32:18;;;;;;;;;;;18.30;57.40;;;;;;5032890;28;709;-71
2022/03/24 04:34:45;;;;;;;;;;;18.30;57.40;;;;;;5051803;28;830;-70
2022/03/24 04:37:11;;;;;;;;;;;18.30;57.40;;;;;;5050707;28;1965;-70
2022/03/24 04:39:36;;;;;;;;;;;18.30;57.40;;;;;;5036094;28;1010;-70
2022/03/24 04:42:02;;;;;;;;;;;18.30;57.40;;;;;;5035918;28;1045;-70
2022/03/24 04:44:27;;;;;;;;;;;18.40;57.40;;;;;;5051271;28;911;-70
2022/03/24 04:46:53;;;;;;;;;;;18.30;57.40;;;;;;5050827;28;1305;-70
2022/03/24 04:49:18;;;;;;;;;;;18.40;57.50;;;;;;5051458;28;892;-70
2022/03/24 04:51:44;;;;;;;;;;;18.30;57.40;;;;;;5035778;28;886;-70
2022/03/24 04:54:10;;;;;;;;;;;18.30;57.40;;;;;;5051073;28;874;-70
2022/03/24 04:56:35;;;;;;;;;;;18.30;57.40;;;;;;5035241;28;1956;-70
2022/03/24 04:59:01;;;;;;;;;;;18.30;57.50;;;;;;5051039;28;1054;-70
2022/03/24 05:01:26;;;;;;;;;;;18.30;57.50;;;;;;5050970;28;864;-70
2022/03/24 05:03:51;;;;;;;;;;;18.30;57.50;;;;;;5050899;28;820;-70
2022/03/24 05:06:17;;;;;;;;;;;18.30;57.50;;;;;;5033939;28;1215;-70
2022/03/24 05:08:42;;;;;;;;;;;18.30;57.50;;;;;;5050897;28;1022;-70
2022/03/24 05:11:08;;;;;;;;;;;18.30;57.50;;;;;;5035431;28;852;-70
2022/03/24 05:13:33;;;;;;;;;;;18.30;57.50;;;;;;5051027;28;919;-70
2022/03/24 05:15:59;;;;;;;;;;;18.30;57.50;;;;;;5034934;28;1945;-70
2022/03/24 05:18:24;;;;;;;;;;;18.30;57.50;;;;;;5050614;28;891;-70
2022/03/24 05:20:50;;;;;;;;;;;18.30;57.50;;;;;;5050756;28;875;-70
2022/03/24 05:23:15;;;;;;;;;;;18.30;57.50;;;;;;5050511;28;1038;-70
2022/03/24 05:25:41;;;;;;;;;;;18.30;57.50;;;;;;5035014;28;1199;-70
2022/03/24 05:28:07;;;;;;;;;;;18.30;57.50;;;;;;5034898;28;1142;-70
2022/03/24 05:30:33;;;;;;;;;;;18.30;57.40;;;;;;5035042;28;819;-70
2022/03/24 05:32:58;;;;;;;;;;;18.40;57.40;;;;;;5042611;28;1825;-69
2022/03/24 05:35:23;;;;;;;;;;;18.40;57.40;;;;;;5034285;28;1371;-68
2022/03/24 05:37:49;;;;;;;;;;;18.40;57.30;;;;;;5032595;28;1922;-69
2022/03/24 05:40:14;;;;;;;;;;;18.40;57.20;;;;;;5034565;28;1305;-69
2022/03/24 05:42:40;;;;;;;;;;;18.50;57.20;;;;;;5034726;28;668;-68
2022/03/24 05:45:05;;;;;;;;;;;18.50;57.10;;;;;;5031708;28;1828;-68
2022/03/24 05:47:31;;;;;;;;;;;18.50;57.60;;;;;;5048244;28;1216;-69
2022/03/24 05:49:56;;;;;;;;;;;18.50;56.90;;;;;;5034517;28;1116;-68
2022/03/24 05:52:22;;;;;;;;;;;18.60;56.90;;;;;;5033285;28;1301;-69
2022/03/24 05:54:47;;;;;;;;;;;18.60;56.80;;;;;;5033847;28;859;-70
2022/03/24 05:57:13;;;;;;;;;;;18.60;56.70;;;;;;5032746;28;1914;-69
2022/03/24 05:59:38;;;;;;;;;;;18.60;56.70;;;;;;5033794;28;1364;-69
2022/03/24 06:02:04;;;;;;;;;;;18.60;56.70;;;;;;5049512;28;804;-69
2022/03/24 06:04:30;;;;;;;;;;;18.60;56.70;;;;;;5033006;28;1208;-69
2022/03/24 06:06:56;;;;;;;;;;;18.60;56.60;;;;;;5033771;28;1267;-69
2022/03/24 06:09:22;;;;;;;;;;;18.70;56.60;;;;;;5049347;28;863;-72
2022/03/24 06:11:47;;;;;;;;;;;18.70;55.70;;;;;;5049016;28;1078;-72
2022/03/24 06:14:13;;;;;;;;;;;18.60;54.40;;;;;;5032337;28;1250;-72
2022/03/24 06:16:38;;;;;;;;;;;18.70;53.90;;;;;;5032641;28;1959;-72
2022/03/24 06:19:04;;;;;;;;;;;18.60;53.10;;;;;;5034047;28;849;-72
2022/03/24 06:21:29;;;;;;;;;;;18.60;51.70;;;;;;5034024;28;843;-70
2022/03/24 06:23:54;;;;;;;;;;;18.60;50.80;;;;;;5049516;28;815;-69
2022/03/24 06:26:21;;;;;;;;;;;18.60;50.70;;;;;;5049181;28;1219;-69
2022/03/24 06:28:47;;;;;;;;;;;18.70;51.10;;;;;;5033872;28;1370;-68
2022/03/24 06:31:12;;;;;;;;;;;18.70;51.30;;;;;;5033684;28;860;-69
2022/03/24 06:33:38;;;;;;;;;;;18.70;51.50;;;;;;5033713;28;729;-69
2022/03/24 06:36:04;;;;;;;;;;;18.70;51.70;;;;;;5033328;28;1918;-69
2022/03/24 06:38:30;;;;;;;;;;;18.70;51.70;;;;;;5033679;28;803;-69
2022/03/24 06:40:55;;;;;;;;;;;18.70;51.70;;;;;;5048934;28;907;-69
2022/03/24 06:43:22;;;;;;;;;;;18.80;51.90;;;;;;5033658;28;919;-68
2022/03/24 06:45:47;;;;;;;;;;;18.80;52.00;;;;;;5033041;28;1225;-68
2022/03/24 06:48:13;;;;;;;;;;;18.80;52.00;;;;;;5033502;28;776;-69
2022/03/24 06:50:38;;;;;;;;;;;18.80;52.10;;;;;;5033498;28;907;-69
2022/03/24 06:53:04;;;;;;;;;;;18.80;52.20;;;;;;5032472;28;989;-68
2022/03/24 06:55:29;;;;;;;;;;;18.80;52.30;;;;;;5048336;28;1191;-69
2022/03/24 06:57:54;;;;;;;;;;;18.90;52.40;;;;;;5033128;28;1969;-69
2022/03/24 07:00:21;;;;;;;;;;;18.90;52.50;;;;;;5033874;28;653;-68
2022/03/24 07:02:46;;;;;;;;;;;18.90;52.50;;;;;;5048786;28;848;-66
2022/03/24 07:05:12;;;;;;;;;;;18.90;52.60;;;;;;5031985;28;1216;-67
2022/03/24 07:07:37;;;;;;;;;;;18.90;52.60;;;;;;5033009;28;804;-67
2022/03/24 07:10:03;;;;;;;;;;;18.90;52.80;;;;;;5048688;28;847;-68
2022/03/24 07:12:28;;;;;;;;;;;18.90;52.80;;;;;;5033000;28;1045;-68
2022/03/24 07:14:54;;;;;;;;;;;18.90;52.90;;;;;;5033349;28;1213;-68
2022/03/24 07:17:19;;;;;;;;;;;18.90;53.00;;;;;;5032742;28;1950;-69
2022/03/24 07:19:45;;;;;;;;;;;18.90;53.00;;;;;;5033329;28;775;-68
2022/03/24 07:22:10;;;;;;;;;;;18.90;53.10;;;;;;5031713;28;1132;-69
2022/03/24 07:24:36;;;;;;;;;;;18.90;53.10;;;;;;5048620;28;954;-69
2022/03/24 07:27:02;;;;;;;;;;;18.90;53.20;;;;;;5047823;28;1275;-69
2022/03/24 07:29:27;;;;;;;;;;;18.90;53.30;;;;;;5048616;28;827;-68
2022/03/24 07:31:53;;;;;;;;;;;18.90;53.40;;;;;;5033261;28;771;-70
2022/03/24 07:34:18;;;;;;;;;;;18.90;53.40;;;;;;5033041;28;891;-68
2022/03/24 07:36:44;;;;;;;;;;;18.90;53.50;;;;;;5032453;28;1906;-68
2022/03/24 07:39:10;;;;;;;;;;;18.90;53.50;;;;;;5048203;28;871;-68
2022/03/24 07:41:35;;;;;;;;;;;18.90;53.60;;;;;;5032963;28;862;-71
2022/03/24 07:44:01;;;;;;;;;;;18.90;53.60;;;;;;5048028;28;1038;-70
2022/03/24 07:46:27;;;;;;;;;;;18.90;53.60;;;;;;5032724;28;1172;-70
2022/03/24 07:48:52;;;;;;;;;;;18.90;53.70;;;;;;5031456;28;907;-70
2022/03/24 07:51:19;;;;;;;;;;;18.90;53.70;;;;;;5032148;28;1304;-70
2022/03/24 07:53:47;;;;;;;;;;;18.90;53.70;;;;;;5047610;28;1328;-70
2022/03/24 07:56:13;;;;;;;;;;;18.90;53.70;;;;;;5031843;28;1969;-70
2022/03/24 07:58:39;;;;;;;;;;;18.90;53.80;;;;;;5031815;28;1340;-70
2022/03/24 08:01:04;;;;;;;;;;;18.90;53.80;;;;;;5030905;28;1399;-71
2022/03/24 08:03:30;;;;;;;;;;;18.90;53.80;;;;;;5032213;28;1241;-71
2022/03/24 08:05:56;;;;;;;;;;;18.90;53.90;;;;;;5030977;28;1280;-70
2022/03/24 08:08:21;;;;;;;;;;;18.90;53.90;;;;;;5034601;28;859;-70
2022/03/24 08:10:47;;;;;;;;;;;19.00;54.00;;;;;;5035042;28;1666;-71
2022/03/24 08:13:16;;;;;;;;;;;19.00;54.00;;;;;;5051354;28;1171;-70
2022/03/24 08:15:42;;;;;;;;;;;19.10;54.30;;;;;;5050707;28;1318;-69
2022/03/24 08:18:08;;;;;;;;;;;19.20;54.50;;;;;;5051231;28;1965;-71
2022/03/24 08:20:33;;;;;;;;;;;19.30;54.40;;;;;;5051234;28;1291;-71
2022/03/24 08:22:59;;;;;;;;;;;19.40;54.30;;;;;;5051775;28;1006;-70
2022/03/24 08:25:25;;;;;;;;;;;19.50;54.20;;;;;;5034844;28;1643;-70
2022/03/24 08:27:51;;;;;;;;;;;19.60;54.00;;;;;;5051196;28;1154;-70
2022/03/24 08:30:16;;;;;;;;;;;19.70;53.90;;;;;;5036338;28;883;-71
2022/03/24 08:32:41;;;;;;;;;;;19.90;53.80;;;;;;5036179;28;713;-70
2022/03/24 08:35:07;;;;;;;;;;;20.00;53.70;;;;;;5035972;28;1225;-70
2022/03/24 08:37:32;;;;;;;;;;;20.00;53.50;;;;;;5047517;28;1969;-70
2022/03/24 08:39:58;;;;;;;;;;;20.10;53.40;;;;;;5035979;28;707;-70
2022/03/24 08:42:23;;;;;;;;;;;20.20;53.40;;;;;;5051072;28;810;-71
2022/03/24 08:44:51;;;;;;;;;;;20.30;53.30;;;;;;5036059;28;851;-70
2022/03/24 08:47:16;;;;;;;;;;;20.40;53.20;;;;;;5035558;28;1097;-70
2022/03/24 08:49:42;;;;;;;;;;;20.50;53.20;;;;;;5034613;28;812;-71
2022/03/24 08:52:08;;;;;;;;;;;20.50;53.10;;;;;;5051242;28;986;-70
2022/03/24 08:54:33;;;;;;;;;;;20.50;53.10;;;;;;5035624;28;847;-71
2022/03/24 08:56:59;;;;;;;;;;;20.50;53.10;;;;;;5034078;28;1887;-70
2022/03/24 08:59:24;;;;;;;;;;;20.60;53.20;;;;;;5051158;28;824;-70
2022/03/24 09:01:50;;;;;;;;;;;20.60;53.20;;;;;;5035858;28;935;-70
2022/03/24 09:04:16;;;;;;;;;;;20.60;53.20;;;;;;5050961;28;890;-72
2022/03/24 09:06:42;;;;;;;;;;;20.60;53.20;;;;;;5035868;28;1181;-70
2022/03/24 09:09:07;;;;;;;;;;;20.60;53.30;;;;;;5035397;28;714;-70
2022/03/24 09:11:33;;;;;;;;;;;20.60;53.40;;;;;;5035362;28;858;-69
2022/03/24 09:13:58;;;;;;;;;;;20.60;53.40;;;;;;5035332;28;915;-71
2022/03/24 09:16:24;;;;;;;;;;;20.60;53.50;;;;;;5033399;28;1902;-70
2022/03/24 09:18:49;;;;;;;;;;;20.60;53.60;;;;;;5034290;28;1061;-70
2022/03/24 09:21:16;;;;;;;;;;;20.60;54.00;;;;;;5035019;28;994;-71
2022/03/24 09:23:42;;;;;;;;;;;20.60;54.10;;;;;;5050092;28;871;-70
2022/03/24 09:26:08;;;;;;;;;;;20.60;54.20;;;;;;5049262;28;1345;-70
2022/03/24 09:28:33;;;;;;;;;;;20.50;54.30;;;;;;5034386;28;1302;-70
2022/03/24 09:30:58;;;;;;;;;;;20.50;54.40;;;;;;5035035;28;887;-71
2022/03/24 09:33:24;;;;;;;;;;;20.50;54.60;;;;;;5034918;28;891;-69
2022/03/24 09:35:50;;;;;;;;;;;20.50;54.60;;;;;;5050849;22;2071;-73
2022/03/24 09:38:16;;;;;;;;;;;20.50;54.70;;;;;;5053634;28;1918;-74
2022/03/24 09:40:42;;;;;;;;;;;20.40;54.90;;;;;;5053692;28;819;-75
2022/03/24 09:43:08;;;;;;;;;;;20.40;55.10;;;;;;5054835;28;858;-75
2022/03/24 09:45:33;;;;;;;;;;;20.40;55.50;;;;;;5054633;28;1279;-75
2022/03/24 09:47:58;;;;;;;;;;;20.40;55.50;;;;;;5053452;28;1532;-74
2022/03/24 09:50:26;;;;;;;;;;;20.30;55.60;;;;;;5054649;28;754;-74
2022/03/24 09:52:52;;;;;;;;;;;20.30;55.70;;;;;;5054670;28;989;-74
2022/03/24 09:55:18;;;;;;;;;;;20.30;55.80;;;;;;5052837;28;1052;-74
2022/03/24 09:57:43;;;;;;;;;;;20.30;56.50;;;;;;5051563;28;1898;-76
2022/03/24 10:00:10;;;;;;;;;;;20.30;55.90;;;;;;5053139;28;791;-73
2022/03/24 10:02:35;;;;;;;;;;;20.30;56.10;;;;;;5052572;28;1546;-74
2022/03/24 10:05:01;;;;;;;;;;;20.30;56.20;;;;;;5034399;28;1401;-74
2022/03/24 10:07:27;;;;;;;;;;;20.20;56.20;;;;;;5052518;28;1584;-74
2022/03/24 10:09:55;;;;;;;;;;;20.20;56.30;;;;;;5054013;28;831;-74
2022/03/24 10:12:22;;;;;;;;;;;20.20;56.40;;;;;;5054467;28;878;-74
2022/03/24 10:14:57;;;;;;;;;;;20.20;56.40;;;;;;5052675;28;1278;-74
2022/03/24 10:17:22;;;;;;;;;;;20.20;56.50;;;;;;5053248;28;2242;-75
2022/03/24 10:20:00;;;;;;;;;;;20.10;56.50;;;;;;5052440;28;1613;-74
2022/03/24 10:22:25;;;;;;;;;;;20.10;56.60;;;;;;5053881;28;1579;-74
2022/03/24 10:24:50;;;;;;;;;;;20.10;56.60;;;;;;5053725;28;1403;-74
2022/03/24 10:27:23;;;;;;;;;;;20.10;56.70;;;;;;5053409;28;1528;-75
2022/03/24 10:29:51;;;;;;;;;;;20.10;56.80;;;;;;5051817;28;1383;-74
2022/03/24 10:32:17;;;;;;;;;;;20.10;56.80;;;;;;5052526;28;1564;-72
2022/03/24 10:34:46;;;;;;;;;;;20.00;56.80;;;;;;5052567;28;978;-72
2022/03/24 10:37:12;;;;;;;;;;;20.00;56.90;;;;;;5052560;28;1906;-72
2022/03/24 10:39:38;;;;;;;;;;;20.00;56.90;;;;;;5052406;28;1420;-73
2022/03/24 10:42:10;;;;;;;;;;;20.00;57.00;;;;;;5052710;28;807;-72
2022/03/24 10:44:36;;;;;;;;;;;20.00;57.00;;;;;;5052936;28;1349;-72
2022/03/24 10:47:01;;;;;;;;;;;20.00;57.20;;;;;;5032186;28;2047;-72
2022/03/24 10:49:27;;;;;;;;;;;19.90;57.20;;;;;;5032196;28;1262;-72
2022/03/24 10:51:52;;;;;;;;;;;19.90;57.30;;;;;;5049086;28;891;-74
2022/03/24 10:54:38;;;;;;;;;;;19.90;57.30;;;;;;5048923;28;801;-72
2022/03/24 10:57:06;;;;;;;;;;;19.90;57.40;;;;;;5033097;28;1890;-72
2022/03/24 10:59:33;;;;;;;;;;;19.90;57.50;;;;;;5033707;28;946;-72
2022/03/24 11:01:59;;;;;;;;;;;19.90;57.50;;;;;;5048849;28;1036;-73
2022/03/24 11:04:25;;;;;;;;;;;19.90;58.10;;;;;;5048779;28;827;-73
2022/03/24 11:06:50;;;;;;;;;;;19.90;57.50;;;;;;5034867;28;1317;-72
2022/03/24 11:09:23;;;;;;;;;;;19.90;57.60;;;;;;5035534;28;1201;-72
2022/03/24 11:11:48;;;;;;;;;;;19.90;57.60;;;;;;5053245;28;823;-73
2022/03/24 11:14:13;;;;;;;;;;;19.90;57.60;;;;;;5051988;28;1257;-74
2022/03/24 11:16:39;;;;;;;;;;;19.90;57.70;;;;;;5050350;28;1960;-73
2022/03/24 11:19:11;;;;;;;;;;;19.80;57.80;;;;;;5051896;28;930;-74
2022/03/24 11:21:40;;;;;;;;;;;19.80;57.80;;;;;;5035355;28;1067;-73
2022/03/24 11:24:05;;;;;;;;;;;19.80;57.80;;;;;;5053216;28;949;-73
2022/03/24 11:26:31;;;;;;;;;;;19.80;58.40;;;;;;5052838;28;1259;-73
2022/03/24 11:28:57;;;;;;;;;;;19.80;58.00;;;;;;5051827;28;1304;-73
2022/03/24 11:31:28;;;;;;;;;;;19.80;58.00;;;;;;5052017;28;842;-73
2022/03/24 11:33:54;;;;;;;;;;;19.80;58.20;;;;;;5053134;28;1107;-73
2022/03/24 11:36:21;;;;;;;;;;;19.70;58.10;;;;;;5052612;28;1902;-74
2022/03/24 11:38:47;;;;;;;;;;;19.70;58.20;;;;;;5053119;28;799;-73
2022/03/24 11:41:26;;;;;;;;;;;19.70;58.40;;;;;;5052408;28;779;-74
2022/03/24 11:43:53;;;;;;;;;;;19.70;58.40;;;;;;5056276;28;710;-74
2022/03/24 11:46:20;;;;;;;;;;;19.60;58.40;;;;;;5038950;28;1299;-74
2022/03/24 11:48:45;;;;;;;;;;;19.60;58.40;;;;;;5056298;28;755;-74
2022/03/24 11:51:21;;;;;;;;;;;19.70;58.40;;;;;;5055782;28;867;-74
2022/03/24 11:54:07;;;;;;;;;;;19.60;58.40;;;;;;5057218;28;830;-74
2022/03/24 11:56:33;;;;;;;;;;;19.60;58.50;;;;;;5056652;28;1969;-73
2022/03/24 11:59:01;;;;;;;;;;;19.60;58.50;;;;;;5055635;28;1376;-73
2022/03/24 12:01:32;;;;;;;;;;;19.60;58.50;;;;;;5056895;28;835;-73
2022/03/24 12:04:00;;;;;;;;;;;19.60;58.60;;;;;;5057103;28;795;-74
2022/03/24 12:06:44;;;;;;;;;;;19.60;58.60;;;;;;5056240;28;1410;-75
2022/03/24 12:09:10;;;;;;;;;;;19.60;58.60;;;;;;5056091;28;1856;-75
2022/03/24 12:11:35;;;;;;;;;;;19.60;58.60;;;;;;5056610;28;1548;-74
2022/03/24 12:14:01;;;;;;;;;;;19.60;58.60;;;;;;5055177;28;1419;-73
2022/03/24 12:16:27;;;;;;;;;;;19.60;59.00;;;;;;5055015;28;1898;-76
2022/03/24 12:18:52;;;;;;;;;;;19.60;59.10;;;;;;5054928;28;1298;-75
2022/03/24 12:21:27;;;;;;;;;;;19.60;58.90;;;;;;5055133;28;1260;-76
2022/03/24 12:24:02;;;;;;;;;;;19.60;59.00;;;;;;5056563;28;1088;-76
2022/03/24 12:26:30;;;;;;;;;;;19.60;59.00;;;;;;5054945;28;1304;-75
2022/03/24 12:29:11;;;;;;;;;;;19.60;59.10;;;;;;5055201;28;1178;-75
2022/03/24 12:31:55;;;;;;;;;;;19.60;59.10;;;;;;5056214;28;990;-76
2022/03/24 12:34:24;;;;;;;;;;;19.60;59.20;;;;;;5056250;28;879;-75
2022/03/24 12:36:49;;;;;;;;;;;19.60;59.20;;;;;;5054760;28;1965;-75
2022/03/24 12:39:29;;;;;;;;;;;19.50;59.20;;;;;;5055164;28;1100;-75
2022/03/24 12:42:11;;;;;;;;;;;19.50;59.30;;;;;;5054931;28;887;-73
2022/03/24 12:44:52;;;;;;;;;;;19.50;59.30;;;;;;5055027;28;1263;-73
2022/03/24 12:47:30;;;;;;;;;;;19.40;59.30;;;;;;5054504;28;1216;-73
2022/03/24 12:49:57;;;;;;;;;;;19.50;59.50;;;;;;5056045;28;769;-74
2022/03/24 12:52:22;;;;;;;;;;;19.40;59.40;;;;;;5037771;28;2142;-74
2022/03/24 12:54:48;;;;;;;;;;;19.40;59.50;;;;;;5053841;28;1497;-74
2022/03/24 12:57:27;;;;;;;;;;;19.40;59.60;;;;;;5054025;28;1914;-74
2022/03/24 12:59:52;;;;;;;;;;;19.40;59.50;;;;;;5055848;28;1565;-74
2022/03/24 13:02:19;;;;;;;;;;;19.40;59.70;;;;;;5055674;28;832;-73
2022/03/24 13:04:48;;;;;;;;;;;19.50;59.90;;;;;;5054365;28;1233;-73
2022/03/24 13:07:14;;;;;;;;;;;19.50;58.70;;;;;;5055248;28;1204;-74
2022/03/24 13:09:39;;;;;;;;;;;19.40;57.80;;;;;;5054066;28;1017;-73
2022/03/24 13:12:06;;;;;;;;;;;19.40;57.10;;;;;;5055309;28;1017;-73
2022/03/24 13:14:33;;;;;;;;;;;19.40;56.30;;;;;;5054141;28;819;-74
2022/03/24 13:16:59;;;;;;;;;;;19.30;55.70;;;;;;5053368;28;1972;-71
2022/03/24 13:19:24;;;;;;;;;;;19.30;55.70;;;;;;5047179;28;1742;-72
2022/03/24 13:21:50;;;;;;;;;;;19.30;55.50;;;;;;5053281;28;2072;-73
2022/03/24 13:24:21;;;;;;;;;;;19.20;55.40;;;;;;5054664;28;1036;-74
2022/03/24 13:26:59;;;;;;;;;;;19.20;55.50;;;;;;5053070;28;1374;-76
2022/03/24 13:29:35;;;;;;;;;;;19.20;55.40;;;;;;5052234;28;1154;-76
2022/03/24 13:32:10;;;;;;;;;;;19.20;55.40;;;;;;5052580;28;2067;-77
2022/03/24 13:34:35;;;;;;;;;;;19.10;55.40;;;;;;5053178;28;1683;-76
2022/03/24 13:37:14;;;;;;;;;;;19.10;55.30;;;;;;5050990;28;1905;-76
2022/03/24 13:39:44;;;;;;;;;;;19.10;55.30;;;;;;5033650;28;882;-75
2022/03/24 13:42:09;;;;;;;;;;;19.10;55.10;;;;;;5033640;28;811;-76
2022/03/24 13:44:35;;;;;;;;;;;19.10;54.90;;;;;;5036547;28;1372;-75
2022/03/24 13:47:01;;;;;;;;;;;19.00;54.60;;;;;;5052948;28;1371;-76
2022/03/24 13:49:27;;;;;;;;;;;19.00;54.20;;;;;;5054878;28;957;-75
2022/03/24 13:51:53;;;;;;;;;;;19.00;54.20;;;;;;5053394;28;819;-76
2022/03/24 13:54:19;;;;;;;;;;;19.00;54.10;;;;;;5053172;28;1195;-75
2022/03/24 13:56:44;;;;;;;;;;;19.00;54.20;;;;;;5053095;28;1973;-77
2022/03/24 13:59:10;;;;;;;;;;;19.00;54.30;;;;;;5053171;28;1199;-77
2022/03/24 14:01:35;;;;;;;;;;;19.00;54.30;;;;;;5053394;28;955;-78
2022/03/24 14:04:01;;;;;;;;;;;18.90;54.10;;;;;;5053108;28;1050;-77
2022/03/24 14:06:26;;;;;;;;;;;18.90;53.80;;;;;;5051754;28;1263;-76
2022/03/24 14:08:52;;;;;;;;;;;18.90;53.60;;;;;;5053081;28;784;-77
2022/03/24 14:11:24;;;;;;;;;;;18.90;53.40;;;;;;5053059;28;879;-76
2022/03/24 14:13:54;;;;;;;;;;;18.90;53.20;;;;;;5052850;28;858;-76
2022/03/24 14:16:20;;;;;;;;;;;18.90;52.90;;;;;;5052668;28;1968;-75
2022/03/24 14:19:04;;;;;;;;;;;18.90;52.70;;;;;;5054081;28;831;-76
2022/03/24 14:21:43;;;;;;;;;;;18.80;52.70;;;;;;5052907;28;1558;-76
2022/03/24 14:24:08;;;;;;;;;;;18.80;52.40;;;;;;5052275;28;823;-76
2022/03/24 14:26:34;;;;;;;;;;;18.80;52.00;;;;;;5053585;28;1341;-76
2022/03/24 14:29:00;;;;;;;;;;;18.80;51.90;;;;;;5052873;28;1230;-76
2022/03/24 14:31:31;;;;;;;;;;;18.80;52.10;;;;;;5052807;28;878;-75
2022/03/24 14:33:58;;;;;;;;;;;18.80;52.00;;;;;;5052206;28;1609;-74
2022/03/24 14:36:23;;;;;;;;;;;18.80;51.90;;;;;;5052067;28;1942;-77